Aviation Digital Data Service (ADDS)

Output produced by METARs form (1358 UTC 25 September 2016)
found at http://aviationweather.gov/adds/metars/
 
KRIC 251131Z 2512/2612 02007KT P6SM BKN045 BKN070 
     FM252200 04003KT P6SM SCT070